Impacts TAF Board
For situational awareness. Not to be used for flight planning purposes.
IDs:

KPHX - Phoenix/Sky Harbor, AZ, US

Issued at 2106 UTC 08 Aug 2020
Updated at 2121 UTC 08 Aug 2020
Potential Impact None Slight Moderate High
Time2051Z 08/22Z 08/23Z 09/00Z 09/01Z 09/02Z 09/03Z 09/04Z 09/05Z 09/06Z 09/07Z 09/08Z 09/09Z 09/10Z>>
Type OBS PRVL PRVL PRVL PRVL PRVL PRVL PRVL PRVL PRVL PRVL PRVL PRVL PRVL
VIS 10 >6 >6 >6 >6 >6 >6 >6 >6 >6 >6 >6 >6 >6
CIG -- -- -- -- -- -- -- -- -- -- -- -- -- --
Cover FEW FEW FEW FEW FEW FEW FEW FEW FEW FEW FEW FEW FEW FEW
FltCat VFR VFR VFR VFR VFR VFR VFR VFR VFR VFR VFR VFR VFR VFR
WX -- -- -- -- -- -- -- -- -- -- -- -- -- --
WDir 260 260 260 260 260 260 260 260 260 260 260 260 260 260
WSpd 5 9 9 9 9 9 9 9 9 9 9 9 9 9
WGst -- -- -- -- -- -- -- -- -- -- -- -- -- --
Raw TAF
KPHX 082106Z 0821/0924 26009KT P6SM FEW100
  FM091100 09005KT P6SM SKC
  FM091900 26006KT P6SM SKC


Raw METAR
KPHX 082051Z 26005KT 10SM FEW100 42/04 A2983 RMK AO2 SLP079 T04220044 58019
KPHX 081951Z 23005KT 10SM FEW100 FEW160 42/04 A2985 RMK AO2 SLP085 T04170044
KPHX 081851Z 02006KT 10SM FEW080 FEW100 41/04 A2987 RMK AO2 SLP093 T04060044

METAR Board
Radar Display
Forecast Discussion
For situational awareness. Not to be used for flight planning purposes.